sensor_id;sensor_type;location;lat;lon;timestamp;P1;durP1;ratioP1;P2;durP2;ratioP2
2129;SDS011;1071;52.544;13.374;2022-10-16T00:01:33;2.47;;;2.27;;
2129;SDS011;1071;52.544;13.374;2022-10-16T00:04:01;4.80;;;2.43;;
2129;SDS011;1071;52.544;13.374;2022-10-16T00:06:28;2.80;;;2.30;;
2129;SDS011;1071;52.544;13.374;2022-10-16T00:08:57;2.40;;;2.20;;
2129;SDS011;1071;52.544;13.374;2022-10-16T00:11:25;2.53;;;2.13;;
2129;SDS011;1071;52.544;13.374;2022-10-16T00:13:54;2.20;;;2.00;;
2129;SDS011;1071;52.544;13.374;2022-10-16T00:16:23;2.30;;;2.20;;
2129;SDS011;1071;52.544;13.374;2022-10-16T00:18:51;2.23;;;2.03;;
2129;SDS011;1071;52.544;13.374;2022-10-16T00:21:19;2.13;;;1.90;;
2129;SDS011;1071;52.544;13.374;2022-10-16T00:23:49;2.10;;;1.80;;
2129;SDS011;1071;52.544;13.374;2022-10-16T00:26:19;2.30;;;2.07;;
2129;SDS011;1071;52.544;13.374;2022-10-16T00:28:47;2.30;;;2.10;;
2129;SDS011;1071;52.544;13.374;2022-10-16T00:31:17;2.50;;;1.90;;
2129;SDS011;1071;52.544;13.374;2022-10-16T00:33:46;2.20;;;2.10;;
2129;SDS011;1071;52.544;13.374;2022-10-16T00:36:14;2.10;;;1.97;;
2129;SDS011;1071;52.544;13.374;2022-10-16T00:38:42;10.23;;;3.97;;
2129;SDS011;1071;52.544;13.374;2022-10-16T00:41:10;5.40;;;4.20;;
2129;SDS011;1071;52.544;13.374;2022-10-16T00:43:42;3.90;;;3.60;;
2129;SDS011;1071;52.544;13.374;2022-10-16T00:46:13;2.17;;;2.07;;
2129;SDS011;1071;52.544;13.374;2022-10-16T00:48:45;2.07;;;1.97;;
2129;SDS011;1071;52.544;13.374;2022-10-16T00:51:15;2.27;;;2.07;;
2129;SDS011;1071;52.544;13.374;2022-10-16T00:53:43;2.03;;;1.83;;
2129;SDS011;1071;52.544;13.374;2022-10-16T00:56:11;3.70;;;1.93;;
2129;SDS011;1071;52.544;13.374;2022-10-16T00:58:38;1.60;;;1.50;;
2129;SDS011;1071;52.544;13.374;2022-10-16T01:01:06;2.23;;;1.90;;
2129;SDS011;1071;52.544;13.374;2022-10-16T01:03:34;3.70;;;1.90;;
2129;SDS011;1071;52.544;13.374;2022-10-16T01:06:06;2.03;;;1.83;;
2129;SDS011;1071;52.544;13.374;2022-10-16T01:08:44;2.40;;;2.20;;
2129;SDS011;1071;52.544;13.374;2022-10-16T01:11:17;1.80;;;1.70;;
2129;SDS011;1071;52.544;13.374;2022-10-16T01:13:50;1.70;;;1.60;;
2129;SDS011;1071;52.544;13.374;2022-10-16T01:16:23;2.67;;;1.83;;
2129;SDS011;1071;52.544;13.374;2022-10-16T01:19:01;2.00;;;1.63;;
2129;SDS011;1071;52.544;13.374;2022-10-16T01:21:36;1.70;;;1.60;;
2129;SDS011;1071;52.544;13.374;2022-10-16T01:24:09;2.37;;;1.80;;
2129;SDS011;1071;52.544;13.374;2022-10-16T01:29:47;1.90;;;1.80;;
2129;SDS011;1071;52.544;13.374;2022-10-16T01:32:27;2.03;;;1.93;;
2129;SDS011;1071;52.544;13.374;2022-10-16T01:34:59;1.43;;;1.33;;
2129;SDS011;1071;52.544;13.374;2022-10-16T01:37:32;2.97;;;2.00;;
2129;SDS011;1071;52.544;13.374;2022-10-16T01:40:04;1.80;;;1.70;;
2129;SDS011;1071;52.544;13.374;2022-10-16T01:42:37;2.03;;;1.53;;
2129;SDS011;1071;52.544;13.374;2022-10-16T01:45:06;3.23;;;1.93;;
2129;SDS011;1071;52.544;13.374;2022-10-16T01:47:36;1.60;;;1.50;;
2129;SDS011;1071;52.544;13.374;2022-10-16T01:50:05;1.77;;;1.67;;
2129;SDS011;1071;52.544;13.374;2022-10-16T01:52:34;1.70;;;1.60;;
2129;SDS011;1071;52.544;13.374;2022-10-16T01:55:04;1.60;;;1.23;;
2129;SDS011;1071;52.544;13.374;2022-10-16T01:57:33;2.03;;;1.60;;
2129;SDS011;1071;52.544;13.374;2022-10-16T02:00:07;2.23;;;2.00;;
2129;SDS011;1071;52.544;13.374;2022-10-16T02:02:37;2.00;;;1.83;;
2129;SDS011;1071;52.544;13.374;2022-10-16T02:05:10;1.80;;;1.70;;
2129;SDS011;1071;52.544;13.374;2022-10-16T02:07:42;1.57;;;1.47;;
2129;SDS011;1071;52.544;13.374;2022-10-16T02:10:09;2.03;;;1.83;;
2129;SDS011;1071;52.544;13.374;2022-10-16T02:12:39;1.90;;;1.77;;
2129;SDS011;1071;52.544;13.374;2022-10-16T02:15:08;1.90;;;1.67;;
2129;SDS011;1071;52.544;13.374;2022-10-16T02:17:35;2.47;;;2.27;;
2129;SDS011;1071;52.544;13.374;2022-10-16T02:20:03;1.90;;;1.80;;
2129;SDS011;1071;52.544;13.374;2022-10-16T02:22:32;2.03;;;1.87;;
2129;SDS011;1071;52.544;13.374;2022-10-16T02:25:02;1.90;;;1.77;;
2129;SDS011;1071;52.544;13.374;2022-10-16T02:27:33;2.13;;;1.50;;
2129;SDS011;1071;52.544;13.374;2022-10-16T02:30:07;2.07;;;1.77;;
2129;SDS011;1071;52.544;13.374;2022-10-16T02:32:39;2.00;;;1.90;;
2129;SDS011;1071;52.544;13.374;2022-10-16T02:35:09;3.50;;;1.67;;
2129;SDS011;1071;52.544;13.374;2022-10-16T02:37:37;1.97;;;1.87;;
2129;SDS011;1071;52.544;13.374;2022-10-16T02:40:07;1.70;;;1.60;;
2129;SDS011;1071;52.544;13.374;2022-10-16T02:42:36;2.40;;;1.80;;
2129;SDS011;1071;52.544;13.374;2022-10-16T02:45:07;1.60;;;1.50;;
2129;SDS011;1071;52.544;13.374;2022-10-16T02:47:35;1.70;;;1.60;;
2129;SDS011;1071;52.544;13.374;2022-10-16T02:50:03;1.50;;;1.40;;
2129;SDS011;1071;52.544;13.374;2022-10-16T02:52:30;2.37;;;1.37;;
2129;SDS011;1071;52.544;13.374;2022-10-16T02:54:57;2.80;;;2.60;;
2129;SDS011;1071;52.544;13.374;2022-10-16T02:57:24;2.73;;;1.90;;
2129;SDS011;1071;52.544;13.374;2022-10-16T02:59:51;1.97;;;1.77;;
2129;SDS011;1071;52.544;13.374;2022-10-16T03:02:20;1.80;;;1.70;;
2129;SDS011;1071;52.544;13.374;2022-10-16T03:04:47;1.70;;;1.60;;
2129;SDS011;1071;52.544;13.374;2022-10-16T03:07:14;3.03;;;1.73;;
2129;SDS011;1071;52.544;13.374;2022-10-16T03:09:41;1.60;;;1.50;;
2129;SDS011;1071;52.544;13.374;2022-10-16T03:12:08;1.90;;;1.70;;
2129;SDS011;1071;52.544;13.374;2022-10-16T03:14:37;1.87;;;1.77;;
2129;SDS011;1071;52.544;13.374;2022-10-16T03:17:04;1.90;;;1.80;;
2129;SDS011;1071;52.544;13.374;2022-10-16T03:19:33;1.80;;;1.70;;
2129;SDS011;1071;52.544;13.374;2022-10-16T03:22:00;1.30;;;1.20;;
2129;SDS011;1071;52.544;13.374;2022-10-16T03:24:28;1.70;;;1.60;;
2129;SDS011;1071;52.544;13.374;2022-10-16T03:26:54;1.90;;;1.80;;
2129;SDS011;1071;52.544;13.374;2022-10-16T03:29:21;1.50;;;1.40;;
2129;SDS011;1071;52.544;13.374;2022-10-16T03:31:48;2.00;;;1.90;;
2129;SDS011;1071;52.544;13.374;2022-10-16T03:34:15;1.53;;;1.43;;
2129;SDS011;1071;52.544;13.374;2022-10-16T03:36:44;1.70;;;1.60;;
2129;SDS011;1071;52.544;13.374;2022-10-16T03:39:11;1.83;;;1.30;;
2129;SDS011;1071;52.544;13.374;2022-10-16T03:41:37;1.73;;;1.63;;
2129;SDS011;1071;52.544;13.374;2022-10-16T03:44:05;1.70;;;1.60;;
2129;SDS011;1071;52.544;13.374;2022-10-16T03:46:32;1.53;;;1.40;;
2129;SDS011;1071;52.544;13.374;2022-10-16T03:48:58;2.20;;;2.00;;
2129;SDS011;1071;52.544;13.374;2022-10-16T03:51:27;2.03;;;1.93;;
2129;SDS011;1071;52.544;13.374;2022-10-16T03:53:55;1.53;;;1.43;;
2129;SDS011;1071;52.544;13.374;2022-10-16T03:56:22;1.60;;;1.50;;
2129;SDS011;1071;52.544;13.374;2022-10-16T03:58:50;2.20;;;2.10;;
2129;SDS011;1071;52.544;13.374;2022-10-16T04:01:18;1.57;;;1.47;;
2129;SDS011;1071;52.544;13.374;2022-10-16T04:03:45;1.77;;;1.67;;
2129;SDS011;1071;52.544;13.374;2022-10-16T04:06:12;1.80;;;1.70;;
2129;SDS011;1071;52.544;13.374;2022-10-16T04:08:39;1.87;;;1.77;;
2129;SDS011;1071;52.544;13.374;2022-10-16T04:11:09;1.90;;;1.80;;
2129;SDS011;1071;52.544;13.374;2022-10-16T04:13:36;1.73;;;1.63;;
2129;SDS011;1071;52.544;13.374;2022-10-16T04:16:03;1.77;;;1.67;;
2129;SDS011;1071;52.544;13.374;2022-10-16T04:18:30;1.90;;;1.80;;
2129;SDS011;1071;52.544;13.374;2022-10-16T04:21:01;2.10;;;1.90;;
2129;SDS011;1071;52.544;13.374;2022-10-16T04:23:29;2.00;;;1.90;;
2129;SDS011;1071;52.544;13.374;2022-10-16T04:25:56;1.70;;;1.60;;
2129;SDS011;1071;52.544;13.374;2022-10-16T04:28:24;1.90;;;1.80;;
2129;SDS011;1071;52.544;13.374;2022-10-16T04:30:51;1.80;;;1.70;;
2129;SDS011;1071;52.544;13.374;2022-10-16T04:33:19;1.97;;;1.87;;
2129;SDS011;1071;52.544;13.374;2022-10-16T04:35:46;1.83;;;1.73;;
2129;SDS011;1071;52.544;13.374;2022-10-16T04:38:13;2.00;;;1.70;;
2129;SDS011;1071;52.544;13.374;2022-10-16T04:40:41;1.50;;;1.40;;
2129;SDS011;1071;52.544;13.374;2022-10-16T04:43:08;1.70;;;1.60;;
2129;SDS011;1071;52.544;13.374;2022-10-16T04:45:36;1.53;;;1.43;;
2129;SDS011;1071;52.544;13.374;2022-10-16T04:48:03;1.80;;;1.70;;
2129;SDS011;1071;52.544;13.374;2022-10-16T04:50:30;1.67;;;1.57;;
2129;SDS011;1071;52.544;13.374;2022-10-16T04:52:57;2.13;;;1.93;;
2129;SDS011;1071;52.544;13.374;2022-10-16T04:55:24;2.03;;;1.80;;
2129;SDS011;1071;52.544;13.374;2022-10-16T04:57:51;2.00;;;1.33;;
2129;SDS011;1071;52.544;13.374;2022-10-16T05:00:19;2.37;;;2.20;;
2129;SDS011;1071;52.544;13.374;2022-10-16T05:02:49;1.70;;;1.60;;
2129;SDS011;1071;52.544;13.374;2022-10-16T05:05:16;1.73;;;1.63;;
2129;SDS011;1071;52.544;13.374;2022-10-16T05:07:44;2.43;;;1.60;;
2129;SDS011;1071;52.544;13.374;2022-10-16T05:10:11;1.63;;;1.53;;
2129;SDS011;1071;52.544;13.374;2022-10-16T05:12:38;1.73;;;1.63;;
2129;SDS011;1071;52.544;13.374;2022-10-16T05:15:05;2.13;;;1.93;;
2129;SDS011;1071;52.544;13.374;2022-10-16T05:17:33;1.80;;;1.70;;
2129;SDS011;1071;52.544;13.374;2022-10-16T05:20:05;1.50;;;1.40;;
2129;SDS011;1071;52.544;13.374;2022-10-16T05:22:33;1.90;;;1.80;;
2129;SDS011;1071;52.544;13.374;2022-10-16T05:25:00;2.13;;;1.70;;
2129;SDS011;1071;52.544;13.374;2022-10-16T05:27:30;2.27;;;2.17;;
2129;SDS011;1071;52.544;13.374;2022-10-16T05:29:59;1.80;;;1.70;;
2129;SDS011;1071;52.544;13.374;2022-10-16T05:32:26;2.20;;;2.10;;
2129;SDS011;1071;52.544;13.374;2022-10-16T05:34:53;2.10;;;2.00;;
2129;SDS011;1071;52.544;13.374;2022-10-16T05:37:22;1.80;;;1.70;;
2129;SDS011;1071;52.544;13.374;2022-10-16T05:39:49;2.50;;;2.37;;
2129;SDS011;1071;52.544;13.374;2022-10-16T05:42:15;2.03;;;1.93;;
2129;SDS011;1071;52.544;13.374;2022-10-16T05:44:42;2.27;;;2.10;;
2129;SDS011;1071;52.544;13.374;2022-10-16T05:47:09;2.27;;;2.07;;
2129;SDS011;1071;52.544;13.374;2022-10-16T05:49:39;2.53;;;2.33;;
2129;SDS011;1071;52.544;13.374;2022-10-16T05:52:06;2.43;;;2.10;;
2129;SDS011;1071;52.544;13.374;2022-10-16T05:54:34;2.67;;;2.47;;
2129;SDS011;1071;52.544;13.374;2022-10-16T05:57:03;2.07;;;1.97;;
2129;SDS011;1071;52.544;13.374;2022-10-16T05:59:31;2.00;;;1.90;;
2129;SDS011;1071;52.544;13.374;2022-10-16T06:01:58;1.70;;;1.60;;
2129;SDS011;1071;52.544;13.374;2022-10-16T06:04:26;1.93;;;1.83;;
2129;SDS011;1071;52.544;13.374;2022-10-16T06:06:53;1.53;;;1.43;;
2129;SDS011;1071;52.544;13.374;2022-10-16T06:09:20;1.77;;;1.57;;
2129;SDS011;1071;52.544;13.374;2022-10-16T06:11:49;2.30;;;2.10;;
2129;SDS011;1071;52.544;13.374;2022-10-16T06:14:16;1.90;;;1.80;;
2129;SDS011;1071;52.544;13.374;2022-10-16T06:16:44;2.67;;;2.47;;
2129;SDS011;1071;52.544;13.374;2022-10-16T06:19:10;3.10;;;2.80;;
2129;SDS011;1071;52.544;13.374;2022-10-16T06:21:38;3.30;;;3.00;;
2129;SDS011;1071;52.544;13.374;2022-10-16T06:24:05;2.87;;;2.67;;
2129;SDS011;1071;52.544;13.374;2022-10-16T06:26:33;3.90;;;3.60;;
2129;SDS011;1071;52.544;13.374;2022-10-16T06:29:01;3.87;;;3.50;;
2129;SDS011;1071;52.544;13.374;2022-10-16T06:31:29;3.70;;;3.40;;
2129;SDS011;1071;52.544;13.374;2022-10-16T06:33:58;2.73;;;2.53;;
2129;SDS011;1071;52.544;13.374;2022-10-16T06:36:26;3.80;;;3.50;;
2129;SDS011;1071;52.544;13.374;2022-10-16T06:38:53;3.77;;;3.47;;
2129;SDS011;1071;52.544;13.374;2022-10-16T06:41:21;3.60;;;3.30;;
2129;SDS011;1071;52.544;13.374;2022-10-16T06:43:49;2.73;;;2.53;;
2129;SDS011;1071;52.544;13.374;2022-10-16T06:46:20;2.30;;;2.10;;
2129;SDS011;1071;52.544;13.374;2022-10-16T06:48:49;3.00;;;2.77;;
2129;SDS011;1071;52.544;13.374;2022-10-16T06:51:16;4.13;;;2.40;;
2129;SDS011;1071;52.544;13.374;2022-10-16T06:53:46;2.10;;;2.00;;
2129;SDS011;1071;52.544;13.374;2022-10-16T06:56:15;2.13;;;2.03;;
2129;SDS011;1071;52.544;13.374;2022-10-16T06:58:43;2.47;;;2.27;;
2129;SDS011;1071;52.544;13.374;2022-10-16T07:01:11;2.43;;;2.23;;
2129;SDS011;1071;52.544;13.374;2022-10-16T07:03:41;2.33;;;2.23;;
2129;SDS011;1071;52.544;13.374;2022-10-16T07:06:10;2.33;;;2.13;;
2129;SDS011;1071;52.544;13.374;2022-10-16T07:08:39;3.17;;;2.87;;
2129;SDS011;1071;52.544;13.374;2022-10-16T07:11:08;2.10;;;2.00;;
2129;SDS011;1071;52.544;13.374;2022-10-16T07:13:37;2.13;;;1.93;;
2129;SDS011;1071;52.544;13.374;2022-10-16T07:16:05;2.10;;;2.00;;
2129;SDS011;1071;52.544;13.374;2022-10-16T07:18:47;2.03;;;1.67;;
2129;SDS011;1071;52.544;13.374;2022-10-16T07:21:22;2.40;;;2.20;;
2129;SDS011;1071;52.544;13.374;2022-10-16T07:23:50;2.60;;;2.40;;
2129;SDS011;1071;52.544;13.374;2022-10-16T07:26:18;3.60;;;2.03;;
2129;SDS011;1071;52.544;13.374;2022-10-16T07:28:45;2.10;;;2.00;;
2129;SDS011;1071;52.544;13.374;2022-10-16T07:31:13;1.97;;;1.87;;
2129;SDS011;1071;52.544;13.374;2022-10-16T07:33:41;1.80;;;1.70;;
2129;SDS011;1071;52.544;13.374;2022-10-16T07:36:11;2.43;;;2.20;;
2129;SDS011;1071;52.544;13.374;2022-10-16T07:38:39;3.70;;;2.40;;
2129;SDS011;1071;52.544;13.374;2022-10-16T07:41:08;1.50;;;1.40;;
2129;SDS011;1071;52.544;13.374;2022-10-16T07:43:40;1.97;;;1.87;;
2129;SDS011;1071;52.544;13.374;2022-10-16T07:46:26;1.90;;;1.77;;
2129;SDS011;1071;52.544;13.374;2022-10-16T07:48:53;1.90;;;1.80;;
2129;SDS011;1071;52.544;13.374;2022-10-16T07:51:22;2.27;;;2.07;;
2129;SDS011;1071;52.544;13.374;2022-10-16T07:53:52;2.70;;;1.93;;
2129;SDS011;1071;52.544;13.374;2022-10-16T07:56:20;1.70;;;1.60;;
2129;SDS011;1071;52.544;13.374;2022-10-16T07:58:47;1.90;;;1.73;;
2129;SDS011;1071;52.544;13.374;2022-10-16T08:01:16;2.70;;;1.63;;
2129;SDS011;1071;52.544;13.374;2022-10-16T08:03:43;2.13;;;2.03;;
2129;SDS011;1071;52.544;13.374;2022-10-16T08:06:12;5.37;;;4.87;;
2129;SDS011;1071;52.544;13.374;2022-10-16T08:08:40;3.47;;;3.17;;
2129;SDS011;1071;52.544;13.374;2022-10-16T08:11:09;5.57;;;3.77;;
2129;SDS011;1071;52.544;13.374;2022-10-16T08:13:42;4.20;;;3.37;;
2129;SDS011;1071;52.544;13.374;2022-10-16T08:16:09;4.00;;;3.70;;
2129;SDS011;1071;52.544;13.374;2022-10-16T08:18:37;4.83;;;4.40;;
2129;SDS011;1071;52.544;13.374;2022-10-16T08:21:07;3.90;;;3.60;;
2129;SDS011;1071;52.544;13.374;2022-10-16T08:23:40;4.43;;;4.07;;
2129;SDS011;1071;52.544;13.374;2022-10-16T08:26:08;5.77;;;4.33;;
2129;SDS011;1071;52.544;13.374;2022-10-16T08:28:35;4.30;;;3.60;;
2129;SDS011;1071;52.544;13.374;2022-10-16T08:31:05;2.90;;;2.70;;
2129;SDS011;1071;52.544;13.374;2022-10-16T08:33:33;3.73;;;3.30;;
2129;SDS011;1071;52.544;13.374;2022-10-16T08:36:03;2.83;;;2.43;;
2129;SDS011;1071;52.544;13.374;2022-10-16T08:38:32;2.30;;;2.10;;
2129;SDS011;1071;52.544;13.374;2022-10-16T08:41:08;7.10;;;5.63;;
2129;SDS011;1071;52.544;13.374;2022-10-16T08:43:59;4.83;;;4.43;;
2129;SDS011;1071;52.544;13.374;2022-10-16T08:46:37;7.87;;;6.00;;
2129;SDS011;1071;52.544;13.374;2022-10-16T08:49:12;4.90;;;4.50;;
2129;SDS011;1071;52.544;13.374;2022-10-16T08:51:40;3.13;;;2.93;;
2129;SDS011;1071;52.544;13.374;2022-10-16T08:54:13;3.10;;;2.73;;
2129;SDS011;1071;52.544;13.374;2022-10-16T08:56:50;4.90;;;3.80;;
2129;SDS011;1071;52.544;13.374;2022-10-16T08:59:22;2.50;;;1.90;;
2129;SDS011;1071;52.544;13.374;2022-10-16T09:01:49;2.53;;;2.33;;
2129;SDS011;1071;52.544;13.374;2022-10-16T09:07:18;3.50;;;3.20;;
2129;SDS011;1071;52.544;13.374;2022-10-16T09:09:59;1.60;;;1.50;;
2129;SDS011;1071;52.544;13.374;2022-10-16T09:12:39;2.37;;;1.70;;
2129;SDS011;1071;52.544;13.374;2022-10-16T09:15:14;2.73;;;1.50;;
2129;SDS011;1071;52.544;13.374;2022-10-16T09:17:52;1.80;;;1.70;;
2129;SDS011;1071;52.544;13.374;2022-10-16T09:20:28;2.07;;;1.87;;
2129;SDS011;1071;52.544;13.374;2022-10-16T09:23:07;2.13;;;1.70;;
2129;SDS011;1071;52.544;13.374;2022-10-16T09:25:43;4.80;;;4.30;;
2129;SDS011;1071;52.544;13.374;2022-10-16T09:28:15;6.80;;;6.17;;
2129;SDS011;1071;52.544;13.374;2022-10-16T09:30:42;5.00;;;4.60;;
2129;SDS011;1071;52.544;13.374;2022-10-16T09:33:12;5.20;;;4.70;;
2129;SDS011;1071;52.544;13.374;2022-10-16T09:35:41;3.87;;;3.47;;
2129;SDS011;1071;52.544;13.374;2022-10-16T09:38:20;3.77;;;3.47;;
2129;SDS011;1071;52.544;13.374;2022-10-16T09:40:56;2.83;;;2.63;;
2129;SDS011;1071;52.544;13.374;2022-10-16T09:43:26;3.70;;;2.53;;
2129;SDS011;1071;52.544;13.374;2022-10-16T09:45:59;3.50;;;2.87;;
2129;SDS011;1071;52.544;13.374;2022-10-16T09:48:28;3.23;;;2.93;;
2129;SDS011;1071;52.544;13.374;2022-10-16T09:51:00;2.97;;;2.43;;
2129;SDS011;1071;52.544;13.374;2022-10-16T09:53:38;2.40;;;2.20;;
2129;SDS011;1071;52.544;13.374;2022-10-16T09:56:07;3.50;;;3.10;;
2129;SDS011;1071;52.544;13.374;2022-10-16T09:58:41;4.23;;;3.80;;
2129;SDS011;1071;52.544;13.374;2022-10-16T10:01:21;4.10;;;3.80;;
2129;SDS011;1071;52.544;13.374;2022-10-16T10:03:55;4.23;;;3.20;;
2129;SDS011;1071;52.544;13.374;2022-10-16T10:06:26;4.00;;;3.70;;
2129;SDS011;1071;52.544;13.374;2022-10-16T10:08:59;4.17;;;3.77;;
2129;SDS011;1071;52.544;13.374;2022-10-16T10:11:38;3.30;;;3.00;;
2129;SDS011;1071;52.544;13.374;2022-10-16T10:14:12;2.80;;;2.60;;
2129;SDS011;1071;52.544;13.374;2022-10-16T10:16:44;4.30;;;3.40;;
2129;SDS011;1071;52.544;13.374;2022-10-16T10:19:13;5.80;;;5.20;;
2129;SDS011;1071;52.544;13.374;2022-10-16T10:21:41;5.10;;;4.60;;
2129;SDS011;1071;52.544;13.374;2022-10-16T10:24:10;4.17;;;3.03;;
2129;SDS011;1071;52.544;13.374;2022-10-16T10:26:38;5.40;;;4.90;;
2129;SDS011;1071;52.544;13.374;2022-10-16T10:29:17;5.57;;;4.77;;
2129;SDS011;1071;52.544;13.374;2022-10-16T10:31:59;3.37;;;3.00;;
2129;SDS011;1071;52.544;13.374;2022-10-16T10:34:40;3.33;;;2.67;;
2129;SDS011;1071;52.544;13.374;2022-10-16T10:37:22;4.90;;;4.50;;
2129;SDS011;1071;52.544;13.374;2022-10-16T10:39:57;4.10;;;3.67;;
2129;SDS011;1071;52.544;13.374;2022-10-16T10:42:33;4.20;;;2.90;;
2129;SDS011;1071;52.544;13.374;2022-10-16T10:48:06;3.33;;;2.83;;
2129;SDS011;1071;52.544;13.374;2022-10-16T10:50:48;5.17;;;4.67;;
2129;SDS011;1071;52.544;13.374;2022-10-16T10:53:24;10.37;;;5.57;;
2129;SDS011;1071;52.544;13.374;2022-10-16T10:55:59;5.33;;;3.40;;
2129;SDS011;1071;52.544;13.374;2022-10-16T10:58:45;3.23;;;3.00;;
2129;SDS011;1071;52.544;13.374;2022-10-16T11:01:38;2.93;;;2.50;;
2129;SDS011;1071;52.544;13.374;2022-10-16T11:04:19;3.80;;;3.50;;
2129;SDS011;1071;52.544;13.374;2022-10-16T11:06:59;2.60;;;2.40;;
2129;SDS011;1071;52.544;13.374;2022-10-16T11:09:30;3.10;;;2.80;;
2129;SDS011;1071;52.544;13.374;2022-10-16T11:12:06;3.30;;;3.00;;
2129;SDS011;1071;52.544;13.374;2022-10-16T11:14:38;2.13;;;1.93;;
2129;SDS011;1071;52.544;13.374;2022-10-16T11:17:12;2.10;;;1.60;;
2129;SDS011;1071;52.544;13.374;2022-10-16T11:19:51;2.50;;;1.37;;
2129;SDS011;1071;52.544;13.374;2022-10-16T11:22:23;2.33;;;2.13;;
2129;SDS011;1071;52.544;13.374;2022-10-16T11:24:59;4.27;;;3.97;;
2129;SDS011;1071;52.544;13.374;2022-10-16T11:27:34;6.80;;;5.47;;
2129;SDS011;1071;52.544;13.374;2022-10-16T11:30:22;3.60;;;3.33;;
2129;SDS011;1071;52.544;13.374;2022-10-16T11:33:04;3.40;;;3.10;;
2129;SDS011;1071;52.544;13.374;2022-10-16T11:35:47;4.17;;;3.80;;
2129;SDS011;1071;52.544;13.374;2022-10-16T11:38:20;4.50;;;3.60;;
2129;SDS011;1071;52.544;13.374;2022-10-16T11:40:56;4.10;;;3.80;;
2129;SDS011;1071;52.544;13.374;2022-10-16T11:43:41;4.10;;;3.57;;
2129;SDS011;1071;52.544;13.374;2022-10-16T11:46:17;3.20;;;2.90;;
2129;SDS011;1071;52.544;13.374;2022-10-16T11:48:51;2.90;;;2.67;;
2129;SDS011;1071;52.544;13.374;2022-10-16T11:52:03;6.17;;;5.57;;
2129;SDS011;1071;52.544;13.374;2022-10-16T11:54:41;5.50;;;5.00;;
2129;SDS011;1071;52.544;13.374;2022-10-16T11:57:17;5.40;;;4.57;;
2129;SDS011;1071;52.544;13.374;2022-10-16T11:59:50;4.07;;;3.77;;
2129;SDS011;1071;52.544;13.374;2022-10-16T12:02:28;3.80;;;2.97;;
2129;SDS011;1071;52.544;13.374;2022-10-16T12:05:12;4.50;;;2.37;;
2129;SDS011;1071;52.544;13.374;2022-10-16T12:07:48;3.17;;;2.83;;
2129;SDS011;1071;52.544;13.374;2022-10-16T12:10:26;3.43;;;3.23;;
2129;SDS011;1071;52.544;13.374;2022-10-16T12:12:57;3.20;;;2.93;;
2129;SDS011;1071;52.544;13.374;2022-10-16T12:15:24;2.80;;;2.13;;
2129;SDS011;1071;52.544;13.374;2022-10-16T12:17:53;3.57;;;3.27;;
2129;SDS011;1071;52.544;13.374;2022-10-16T12:20:26;5.80;;;4.13;;
2129;SDS011;1071;52.544;13.374;2022-10-16T12:22:58;2.37;;;2.17;;
2129;SDS011;1071;52.544;13.374;2022-10-16T12:25:28;1.90;;;1.80;;
2129;SDS011;1071;52.544;13.374;2022-10-16T12:27:57;2.90;;;2.10;;
2129;SDS011;1071;52.544;13.374;2022-10-16T12:30:32;2.17;;;2.07;;
2129;SDS011;1071;52.544;13.374;2022-10-16T12:33:04;2.70;;;2.50;;
2129;SDS011;1071;52.544;13.374;2022-10-16T12:35:44;2.43;;;2.23;;
2129;SDS011;1071;52.544;13.374;2022-10-16T12:38:15;3.70;;;3.10;;
2129;SDS011;1071;52.544;13.374;2022-10-16T12:40:44;4.23;;;3.83;;
2129;SDS011;1071;52.544;13.374;2022-10-16T12:43:25;2.40;;;2.20;;
2129;SDS011;1071;52.544;13.374;2022-10-16T12:46:01;2.10;;;1.90;;
2129;SDS011;1071;52.544;13.374;2022-10-16T12:48:30;5.20;;;2.23;;
2129;SDS011;1071;52.544;13.374;2022-10-16T12:51:08;2.77;;;2.50;;
2129;SDS011;1071;52.544;13.374;2022-10-16T12:54:05;3.80;;;2.60;;
2129;SDS011;1071;52.544;13.374;2022-10-16T12:57:00;2.30;;;2.10;;
2129;SDS011;1071;52.544;13.374;2022-10-16T12:59:38;2.93;;;2.30;;
2129;SDS011;1071;52.544;13.374;2022-10-16T13:02:20;2.93;;;2.33;;
2129;SDS011;1071;52.544;13.374;2022-10-16T13:05:13;3.13;;;2.53;;
2129;SDS011;1071;52.544;13.374;2022-10-16T13:07:53;3.03;;;2.83;;
2129;SDS011;1071;52.544;13.374;2022-10-16T13:10:27;2.37;;;2.10;;
2129;SDS011;1071;52.544;13.374;2022-10-16T13:13:18;2.40;;;1.70;;
2129;SDS011;1071;52.544;13.374;2022-10-16T13:16:10;3.73;;;1.90;;
2129;SDS011;1071;52.544;13.374;2022-10-16T13:18:47;2.70;;;2.00;;
2129;SDS011;1071;52.544;13.374;2022-10-16T13:21:27;1.40;;;1.30;;
2129;SDS011;1071;52.544;13.374;2022-10-16T13:24:08;1.70;;;1.60;;
2129;SDS011;1071;52.544;13.374;2022-10-16T13:26:43;2.13;;;1.60;;
2129;SDS011;1071;52.544;13.374;2022-10-16T13:32:00;1.50;;;1.40;;
2129;SDS011;1071;52.544;13.374;2022-10-16T13:34:41;1.93;;;1.83;;
2129;SDS011;1071;52.544;13.374;2022-10-16T13:37:16;3.23;;;3.03;;
2129;SDS011;1071;52.544;13.374;2022-10-16T13:39:50;1.50;;;1.40;;
2129;SDS011;1071;52.544;13.374;2022-10-16T13:42:28;2.37;;;1.97;;
2129;SDS011;1071;52.544;13.374;2022-10-16T13:44:56;5.00;;;3.30;;
2129;SDS011;1071;52.544;13.374;2022-10-16T13:47:23;3.60;;;3.40;;
2129;SDS011;1071;52.544;13.374;2022-10-16T13:49:58;4.43;;;3.50;;
2129;SDS011;1071;52.544;13.374;2022-10-16T13:52:26;2.77;;;2.50;;
2129;SDS011;1071;52.544;13.374;2022-10-16T13:54:55;2.67;;;2.47;;
2129;SDS011;1071;52.544;13.374;2022-10-16T13:57:22;3.20;;;2.60;;
2129;SDS011;1071;52.544;13.374;2022-10-16T13:59:50;2.50;;;2.10;;
2129;SDS011;1071;52.544;13.374;2022-10-16T14:02:18;2.20;;;1.97;;
2129;SDS011;1071;52.544;13.374;2022-10-16T14:04:48;3.00;;;2.10;;
2129;SDS011;1071;52.544;13.374;2022-10-16T14:07:18;6.43;;;3.53;;
2129;SDS011;1071;52.544;13.374;2022-10-16T14:09:54;4.57;;;3.40;;
2129;SDS011;1071;52.544;13.374;2022-10-16T14:12:22;3.57;;;3.27;;
2129;SDS011;1071;52.544;13.374;2022-10-16T14:14:51;3.50;;;2.47;;
2129;SDS011;1071;52.544;13.374;2022-10-16T14:17:20;2.93;;;2.60;;
2129;SDS011;1071;52.544;13.374;2022-10-16T14:19:50;3.50;;;3.20;;
2129;SDS011;1071;52.544;13.374;2022-10-16T14:22:22;3.27;;;2.40;;
2129;SDS011;1071;52.544;13.374;2022-10-16T14:24:57;2.77;;;2.40;;
2129;SDS011;1071;52.544;13.374;2022-10-16T14:27:26;3.10;;;2.03;;
2129;SDS011;1071;52.544;13.374;2022-10-16T14:30:08;2.43;;;1.90;;
2129;SDS011;1071;52.544;13.374;2022-10-16T14:32:52;1.70;;;1.60;;
2129;SDS011;1071;52.544;13.374;2022-10-16T14:35:24;2.23;;;1.80;;
2129;SDS011;1071;52.544;13.374;2022-10-16T14:38:02;2.90;;;2.60;;
2129;SDS011;1071;52.544;13.374;2022-10-16T14:40:35;2.60;;;2.40;;
2129;SDS011;1071;52.544;13.374;2022-10-16T14:43:04;3.90;;;3.60;;
2129;SDS011;1071;52.544;13.374;2022-10-16T14:45:33;2.80;;;2.60;;
2129;SDS011;1071;52.544;13.374;2022-10-16T14:48:05;3.20;;;2.30;;
2129;SDS011;1071;52.544;13.374;2022-10-16T14:50:41;3.60;;;2.50;;
2129;SDS011;1071;52.544;13.374;2022-10-16T14:53:11;2.77;;;2.30;;
2129;SDS011;1071;52.544;13.374;2022-10-16T14:55:40;2.50;;;1.80;;
2129;SDS011;1071;52.544;13.374;2022-10-16T14:59:28;1.87;;;1.73;;
2129;SDS011;1071;52.544;13.374;2022-10-16T15:04:55;2.30;;;2.10;;
2129;SDS011;1071;52.544;13.374;2022-10-16T15:07:22;2.90;;;2.70;;
2129;SDS011;1071;52.544;13.374;2022-10-16T15:09:49;2.13;;;1.93;;
2129;SDS011;1071;52.544;13.374;2022-10-16T15:12:19;2.73;;;2.27;;
2129;SDS011;1071;52.544;13.374;2022-10-16T15:14:46;2.10;;;1.90;;
2129;SDS011;1071;52.544;13.374;2022-10-16T15:17:13;2.37;;;2.17;;
2129;SDS011;1071;52.544;13.374;2022-10-16T15:20:09;2.43;;;2.23;;
2129;SDS011;1071;52.544;13.374;2022-10-16T15:22:36;2.33;;;2.13;;
2129;SDS011;1071;52.544;13.374;2022-10-16T15:25:09;2.07;;;1.97;;
2129;SDS011;1071;52.544;13.374;2022-10-16T15:27:53;2.40;;;2.17;;
2129;SDS011;1071;52.544;13.374;2022-10-16T15:30:20;1.90;;;1.80;;
2129;SDS011;1071;52.544;13.374;2022-10-16T15:32:47;3.10;;;2.80;;
2129;SDS011;1071;52.544;13.374;2022-10-16T15:35:14;3.67;;;2.83;;
2129;SDS011;1071;52.544;13.374;2022-10-16T15:37:41;3.83;;;2.73;;
2129;SDS011;1071;52.544;13.374;2022-10-16T15:40:09;2.30;;;2.10;;
2129;SDS011;1071;52.544;13.374;2022-10-16T15:42:37;2.97;;;2.67;;